Time;durP1;ratioP1;P1;durP2;ratioP2;P2;SDS_P1;SDS_P2;PMS_P1;PMS_P2;Temp;Humidity;BMP_temperature;BMP_pressure;BME280_temperature;BME280_humidity;BME280_pressure;Samples;Min_cycle;Max_cycle;Signal;HPM_P1;HPM_P2
2021/08/05 00:02:09;;;;;;;2.00;1.63;;;23.10;57.30;;;;;;4902221;29;20039;-78
2021/08/05 00:04:35;;;;;;;2.60;1.80;;;23.10;57.40;;;;;;4902263;29;20040;-78
2021/08/05 00:07:01;;;;;;;1.67;1.40;;;23.10;57.30;;;;;;4902667;29;20032;-79
2021/08/05 00:09:27;;;;;;;1.92;1.70;;;23.10;57.40;;;;;;4901961;29;20055;-79
2021/08/05 00:11:52;;;;;;;1.48;1.35;;;23.10;57.40;;;;;;4917503;29;20040;-77
2021/08/05 00:14:18;;;;;;;1.88;1.65;;;23.10;57.50;;;;;;4918995;29;20032;-78
2021/08/05 00:16:44;;;;;;;2.05;1.67;;;23.10;57.50;;;;;;4901799;29;20071;-78
2021/08/05 00:19:10;;;;;;;2.08;1.70;;;23.00;57.50;;;;;;4902368;29;20036;-78
2021/08/05 00:21:36;;;;;;;2.08;1.70;;;23.00;57.50;;;;;;4918342;29;20044;-78
2021/08/05 00:24:02;;;;;;;2.35;1.70;;;23.00;57.50;;;;;;4917380;29;20151;-77
2021/08/05 00:26:27;;;;;;;2.20;1.90;;;23.00;57.60;;;;;;4918454;29;20036;-79
2021/08/05 00:28:53;;;;;;;2.65;1.98;;;22.90;57.60;;;;;;4917174;29;20091;-79
2021/08/05 00:31:19;;;;;;;2.15;1.90;;;22.90;57.70;;;;;;4916985;29;20047;-78
2021/08/05 00:33:45;;;;;;;2.90;2.10;;;23.00;57.70;;;;;;4901359;29;20139;-78
2021/08/05 00:36:11;;;;;;;2.40;1.85;;;22.90;57.70;;;;;;4901759;29;20039;-78
2021/08/05 00:38:37;;;;;;;2.30;1.90;;;22.90;57.80;;;;;;4901552;29;20039;-78
2021/08/05 00:41:02;;;;;;;2.70;1.80;;;22.90;57.80;;;;;;4902041;29;20464;-79
2021/08/05 00:43:28;;;;;;;1.90;1.70;;;22.90;57.80;;;;;;4917732;29;20478;-78
2021/08/05 00:45:55;;;;;;;2.22;1.77;;;22.90;57.90;;;;;;4901592;29;20475;-79
2021/08/05 00:48:20;;;;;;;1.95;1.67;;;22.80;57.90;;;;;;4917634;29;20032;-78
2021/08/05 00:50:48;;;;;;;2.47;1.90;;;22.80;57.90;;;;;;4901971;29;20386;-78
2021/08/05 00:53:17;;;;;;;2.20;1.80;;;22.80;57.90;;;;;;4916880;29;20024;-78
2021/08/05 00:55:45;;;;;;;2.42;2.00;;;22.80;58.00;;;;;;4901005;29;20063;-77
2021/08/05 00:58:11;;;;;;;2.83;1.95;;;22.80;58.00;;;;;;4917049;29;20128;-79
2021/08/05 01:00:40;;;;;;;2.45;1.90;;;22.80;58.00;;;;;;4901025;29;20131;-78
2021/08/05 01:03:25;;;;;;;2.30;2.10;;;22.80;58.10;;;;;;4901022;29;20424;-78
2021/08/05 01:06:00;;;;;;;2.17;1.98;;;22.70;58.10;;;;;;4932717;29;20123;-78
2021/08/05 01:08:27;;;;;;;3.47;2.20;;;22.70;58.10;;;;;;4916630;29;20540;-78
2021/08/05 01:11:03;;;;;;;2.35;2.05;;;22.70;58.10;;;;;;4917188;29;20056;-78
2021/08/05 01:13:43;;;;;;;2.90;2.28;;;22.60;58.20;;;;;;4933139;29;20028;-78
2021/08/05 01:16:13;;;;;;;2.45;2.05;;;22.70;58.20;;;;;;4916441;29;20111;-78
2021/08/05 01:18:40;;;;;;;2.72;2.03;;;22.70;58.30;;;;;;4931984;29;20043;-79
2021/08/05 01:21:20;;;;;;;3.08;2.13;;;22.70;58.30;;;;;;4900941;29;20446;-78
2021/08/05 01:24:00;;;;;;;2.47;1.98;;;22.60;58.40;;;;;;4901502;29;20521;-79
2021/08/05 01:26:48;;;;;;;2.25;1.98;;;22.60;58.40;;;;;;4932474;29;20499;-78
2021/08/05 01:29:16;;;;;;;2.25;1.90;;;22.60;58.50;;;;;;4900516;29;20043;-78
2021/08/05 01:31:43;;;;;;;2.97;2.28;;;22.50;58.40;;;;;;4917567;29;20060;-78
2021/08/05 01:34:14;;;;;;;2.22;1.98;;;22.50;58.40;;;;;;4901316;29;20036;-79
2021/08/05 01:36:43;;;;;;;3.63;2.00;;;22.50;58.50;;;;;;4916244;29;20028;-78
2021/08/05 01:39:10;;;;;;;2.70;2.15;;;22.50;58.50;;;;;;4917549;29;20040;-78
2021/08/05 01:41:37;;;;;;;2.92;2.20;;;22.40;58.50;;;;;;4900406;29;20080;-78
2021/08/05 01:44:08;;;;;;;2.95;2.10;;;22.50;58.60;;;;;;4932028;29;20024;-78
2021/08/05 01:46:35;;;;;;;2.80;2.13;;;22.50;58.60;;;;;;4916251;29;20036;-78
2021/08/05 01:49:01;;;;;;;2.80;2.13;;;22.40;58.60;;;;;;4916243;29;20043;-78
2021/08/05 01:51:28;;;;;;;2.45;2.05;;;22.40;58.60;;;;;;4901186;29;20466;-78
2021/08/05 01:53:54;;;;;;;2.78;2.22;;;22.40;58.60;;;;;;4901059;29;20032;-78
2021/08/05 01:56:21;;;;;;;2.38;1.90;;;22.40;58.70;;;;;;4916839;29;20067;-78
2021/08/05 01:58:48;;;;;;;3.08;2.38;;;22.40;59.40;;;;;;4900534;29;20028;-78
2021/08/05 02:01:18;;;;;;;3.25;2.58;;;22.40;58.70;;;;;;4900339;29;20044;-78
2021/08/05 02:03:58;;;;;;;2.85;2.20;;;22.30;58.80;;;;;;4915944;29;20036;-78
2021/08/05 02:06:27;;;;;;;3.20;2.33;;;22.30;58.90;;;;;;4931868;29;20036;-78
2021/08/05 02:09:01;;;;;;;3.08;2.40;;;22.30;58.80;;;;;;4931995;29;20126;-79
2021/08/05 02:11:30;;;;;;;2.45;1.92;;;22.30;58.90;;;;;;4916254;29;20426;-78
2021/08/05 02:13:59;;;;;;;3.30;2.45;;;22.30;58.90;;;;;;4931959;29;20075;-78
2021/08/05 02:16:28;;;;;;;2.97;2.35;;;22.20;58.90;;;;;;4918399;29;20048;-78
2021/08/05 02:18:55;;;;;;;2.78;2.10;;;22.20;58.90;;;;;;4904440;29;20044;-79
2021/08/05 02:21:23;;;;;;;3.72;2.67;;;22.20;58.90;;;;;;4919480;29;20051;-77
2021/08/05 02:23:52;;;;;;;2.80;2.30;;;22.20;59.00;;;;;;4919190;29;20048;-78
2021/08/05 02:26:19;;;;;;;2.60;2.25;;;22.20;59.00;;;;;;4919731;29;20028;-78
2021/08/05 02:28:48;;;;;;;2.95;2.40;;;22.20;59.00;;;;;;4919893;29;20389;-78
2021/08/05 02:31:14;;;;;;;3.58;2.40;;;22.20;59.00;;;;;;4919347;29;20028;-78
2021/08/05 02:33:41;;;;;;;2.55;2.08;;;22.10;59.00;;;;;;4919401;29;20046;-78
2021/08/05 02:36:06;;;;;;;3.13;2.25;;;22.10;59.10;;;;;;4903531;29;20028;-78
2021/08/05 02:38:33;;;;;;;2.92;2.15;;;22.10;59.10;;;;;;4903718;29;20043;-77
2021/08/05 02:41:00;;;;;;;3.20;2.50;;;22.10;59.10;;;;;;4919154;29;20397;-78
2021/08/05 02:43:28;;;;;;;3.15;2.42;;;22.10;59.20;;;;;;4903657;29;20040;-78
2021/08/05 02:45:55;;;;;;;2.78;2.20;;;22.10;59.20;;;;;;4904133;29;20052;-78
2021/08/05 02:48:22;;;;;;;3.40;2.35;;;22.00;59.20;;;;;;4934924;29;20036;-78
2021/08/05 02:50:48;;;;;;;3.30;2.45;;;22.00;59.20;;;;;;4918725;29;20024;-78
2021/08/05 02:53:15;;;;;;;3.50;2.53;;;22.00;59.20;;;;;;4903988;29;20036;-78
2021/08/05 02:55:44;;;;;;;2.72;2.28;;;22.00;59.20;;;;;;4903254;29;20377;-78
2021/08/05 02:58:11;;;;;;;3.28;2.17;;;22.00;59.30;;;;;;4918888;29;20024;-78
2021/08/05 03:00:37;;;;;;;2.47;2.10;;;22.00;59.30;;;;;;4918865;29;20040;-78
2021/08/05 03:03:04;;;;;;;3.45;2.50;;;22.00;59.30;;;;;;4902827;29;20050;-78
2021/08/05 03:05:30;;;;;;;3.40;2.42;;;21.90;59.30;;;;;;4919978;29;20063;-78
2021/08/05 03:07:56;;;;;;;2.25;2.05;;;21.90;59.30;;;;;;4919120;29;20032;-79
2021/08/05 03:10:21;;;;;;;3.70;2.53;;;21.90;59.40;;;;;;4903249;29;20408;-78
2021/08/05 03:12:47;;;;;;;3.03;2.30;;;21.90;59.40;;;;;;4918612;29;20118;-78
2021/08/05 03:15:13;;;;;;;3.67;2.40;;;21.90;59.40;;;;;;4902511;29;20037;-78
2021/08/05 03:17:40;;;;;;;3.20;2.47;;;21.90;59.40;;;;;;4918135;29;20056;-78
2021/08/05 03:20:07;;;;;;;3.38;2.42;;;21.80;59.40;;;;;;4918473;29;20091;-78
2021/08/05 03:22:33;;;;;;;2.78;2.25;;;21.80;59.50;;;;;;4902815;29;20040;-78
2021/08/05 03:24:58;;;;;;;2.58;2.05;;;21.80;59.50;;;;;;4902891;29;20020;-78
2021/08/05 03:27:24;;;;;;;2.97;2.25;;;21.80;59.50;;;;;;4903399;29;20044;-78
2021/08/05 03:29:50;;;;;;;2.92;2.33;;;21.70;59.50;;;;;;4902694;29;20468;-78
2021/08/05 03:32:15;;;;;;;2.45;1.95;;;21.70;59.40;;;;;;4903332;29;20029;-78
2021/08/05 03:34:41;;;;;;;3.38;2.38;;;21.70;59.50;;;;;;4902633;29;20059;-78
2021/08/05 03:37:07;;;;;;;3.33;2.53;;;21.70;59.50;;;;;;4918097;29;20043;-78
2021/08/05 03:39:33;;;;;;;3.45;2.50;;;21.70;59.60;;;;;;4919813;29;20033;-78
2021/08/05 03:41:59;;;;;;;2.88;2.28;;;21.70;59.60;;;;;;4919620;29;20036;-79
2021/08/05 03:44:25;;;;;;;2.92;2.35;;;21.60;59.50;;;;;;4902387;29;20036;-78
2021/08/05 03:46:50;;;;;;;2.53;2.17;;;21.60;59.60;;;;;;4918266;29;20127;-79
2021/08/05 03:49:16;;;;;;;3.20;2.30;;;21.60;59.60;;;;;;4902490;29;20036;-78
2021/08/05 03:51:42;;;;;;;2.83;2.30;;;21.60;59.70;;;;;;4902317;29;20028;-78
2021/08/05 03:54:08;;;;;;;3.42;2.60;;;21.60;59.70;;;;;;4902317;29;20397;-78
2021/08/05 03:56:34;;;;;;;2.50;2.20;;;21.60;59.70;;;;;;4902224;29;20033;-78
2021/08/05 03:59:01;;;;;;;4.30;2.72;;;21.60;59.80;;;;;;4902356;29;20062;-78
2021/08/05 04:01:26;;;;;;;2.30;1.85;;;21.60;59.80;;;;;;4917836;29;20036;-78
2021/08/05 04:03:52;;;;;;;2.70;2.40;;;21.50;59.80;;;;;;4901870;29;20032;-79
2021/08/05 04:06:18;;;;;;;2.78;2.33;;;21.50;59.80;;;;;;4917698;29;20068;-79
2021/08/05 04:08:43;;;;;;;2.70;2.22;;;21.50;59.80;;;;;;4917479;29;20059;-79
2021/08/05 04:11:09;;;;;;;3.28;2.60;;;21.50;59.80;;;;;;4901943;29;20032;-81
2021/08/05 04:13:35;;;;;;;3.17;2.22;;;21.50;59.80;;;;;;4901966;29;20047;-79
2021/08/05 04:16:01;;;;;;;3.58;2.53;;;21.50;59.90;;;;;;4901753;29;20056;-79
2021/08/05 04:18:27;;;;;;;2.85;2.25;;;21.50;59.90;;;;;;4917156;29;20059;-79
2021/08/05 04:20:52;;;;;;;3.03;2.28;;;21.40;59.90;;;;;;4902004;29;20426;-79
2021/08/05 04:23:18;;;;;;;5.82;2.47;;;21.50;60.00;;;;;;4917181;29;20107;-79
2021/08/05 04:25:45;;;;;;;3.03;2.30;;;21.40;60.00;;;;;;4901937;29;20445;-79
2021/08/05 04:28:11;;;;;;;2.83;2.28;;;21.40;59.90;;;;;;4901673;29;20036;-79
2021/08/05 04:30:37;;;;;;;3.40;2.58;;;21.40;60.00;;;;;;4901810;29;20042;-80
2021/08/05 04:33:03;;;;;;;3.17;2.50;;;21.40;60.00;;;;;;4917212;29;20039;-81
2021/08/05 04:35:28;;;;;;;2.53;2.17;;;21.40;60.00;;;;;;4917298;29;20028;-79
2021/08/05 04:37:57;;;;;;;2.28;2.03;;;21.40;60.00;;;;;;4900801;29;20036;-79
2021/08/05 04:40:24;;;;;;;3.17;2.42;;;21.40;60.10;;;;;;4901257;29;20043;-79
2021/08/05 04:42:51;;;;;;;2.80;2.30;;;21.30;60.00;;;;;;4917810;29;20043;-80
2021/08/05 04:45:17;;;;;;;3.33;2.50;;;21.30;60.10;;;;;;4901288;29;20032;-79
2021/08/05 04:48:09;;;;;;;4.00;2.80;;;21.30;60.10;;;;;;4916927;29;20032;-79
2021/08/05 04:50:37;;;;;;;3.25;2.50;;;21.30;60.30;;;;;;4901186;29;20051;-79
2021/08/05 04:53:05;;;;;;;3.42;2.67;;;21.30;60.20;;;;;;4901372;29;20024;-79
2021/08/05 04:55:30;;;;;;;3.42;2.60;;;21.30;60.20;;;;;;4901535;29;20052;-79
2021/08/05 04:58:00;;;;;;;3.00;2.30;;;21.30;60.20;;;;;;4916962;29;20492;-80
2021/08/05 05:00:34;;;;;;;2.97;2.25;;;21.30;60.30;;;;;;4916619;29;20036;-79
2021/08/05 05:03:01;;;;;;;2.85;2.30;;;21.20;60.30;;;;;;4918444;29;20040;-79
2021/08/05 05:05:28;;;;;;;3.47;2.53;;;21.20;60.30;;;;;;4900877;29;20057;-79
2021/08/05 05:07:54;;;;;;;3.35;2.35;;;21.20;60.30;;;;;;4932706;29;20028;-78
2021/08/05 05:10:21;;;;;;;4.00;2.50;;;21.20;60.40;;;;;;4900982;29;20469;-77
2021/08/05 05:12:47;;;;;;;3.50;2.63;;;21.20;60.40;;;;;;4917487;29;20110;-80
2021/08/05 05:15:15;;;;;;;3.28;2.45;;;21.20;60.40;;;;;;4917622;29;20067;-80
2021/08/05 05:17:43;;;;;;;3.10;2.35;;;21.20;60.50;;;;;;4916203;29;20063;-80
2021/08/05 05:20:11;;;;;;;3.28;2.53;;;21.20;60.50;;;;;;4916310;29;20462;-80
2021/08/05 05:22:38;;;;;;;3.10;2.40;;;21.20;60.60;;;;;;4916058;29;20056;-80
2021/08/05 05:25:06;;;;;;;3.10;2.47;;;21.20;60.60;;;;;;4900536;29;20496;-80
2021/08/05 05:27:32;;;;;;;3.70;2.60;;;21.20;60.60;;;;;;4916411;29;20051;-80
2021/08/05 05:30:00;;;;;;;3.58;2.55;;;21.20;60.60;;;;;;4916241;29;20032;-80
2021/08/05 05:32:27;;;;;;;3.50;2.50;;;21.10;60.60;;;;;;4916004;29;20035;-80
2021/08/05 05:34:54;;;;;;;4.60;2.72;;;21.10;60.70;;;;;;4900699;29;20465;-80
2021/08/05 05:37:21;;;;;;;4.07;2.50;;;21.10;60.70;;;;;;4917219;29;20552;-80
2021/08/05 05:39:48;;;;;;;3.25;2.53;;;21.20;60.80;;;;;;4916164;29;20028;-80
2021/08/05 05:42:14;;;;;;;3.60;2.47;;;21.10;60.80;;;;;;4932333;29;20079;-80
2021/08/05 05:44:40;;;;;;;3.05;2.42;;;21.10;60.80;;;;;;4916727;29;20119;-80
2021/08/05 05:47:06;;;;;;;2.90;2.33;;;21.10;60.80;;;;;;4917206;29;20092;-80
2021/08/05 05:49:32;;;;;;;3.53;2.40;;;21.10;60.80;;;;;;4916952;29;20063;-80
2021/08/05 05:51:58;;;;;;;3.97;2.70;;;21.10;60.80;;;;;;4919710;29;20032;-80
2021/08/05 05:54:24;;;;;;;3.75;2.53;;;21.10;60.90;;;;;;4904555;29;20499;-81
2021/08/05 05:56:49;;;;;;;2.88;2.35;;;21.20;61.00;;;;;;4920056;29;20479;-80
2021/08/05 05:59:15;;;;;;;3.35;2.63;;;21.10;60.90;;;;;;4920817;29;20040;-80
2021/08/05 06:01:41;;;;;;;3.42;2.45;;;21.10;60.90;;;;;;4921428;29;20043;-80
2021/08/05 06:04:07;;;;;;;3.15;2.55;;;21.10;61.00;;;;;;4904152;29;20374;-80
2021/08/05 06:06:32;;;;;;;3.25;2.72;;;21.10;61.00;;;;;;4920176;29;20060;-79
2021/08/05 06:09:00;;;;;;;3.33;2.78;;;21.10;61.00;;;;;;4904255;29;20099;-79
2021/08/05 06:11:28;;;;;;;3.10;2.60;;;21.10;61.00;;;;;;4919762;29;20032;-80
2021/08/05 06:13:55;;;;;;;2.97;2.33;;;21.10;61.10;;;;;;4920019;29;20040;-79
2021/08/05 06:16:21;;;;;;;3.70;2.70;;;21.10;61.10;;;;;;4903650;29;20056;-80
2021/08/05 06:18:47;;;;;;;3.25;2.90;;;21.10;61.10;;;;;;4919606;29;20044;-79
2021/08/05 06:21:12;;;;;;;3.72;2.78;;;21.10;61.10;;;;;;4903742;29;20107;-80
2021/08/05 06:23:38;;;;;;;3.83;2.78;;;21.10;61.10;;;;;;4904431;29;20111;-79
2021/08/05 06:26:04;;;;;;;3.42;2.78;;;21.10;61.20;;;;;;4903485;29;20028;-80
2021/08/05 06:28:33;;;;;;;4.93;2.95;;;21.10;61.20;;;;;;4903809;29;20047;-80
2021/08/05 06:31:03;;;;;;;3.53;2.75;;;21.00;61.10;;;;;;4919797;29;20032;-80
2021/08/05 06:33:29;;;;;;;3.83;2.70;;;21.10;61.20;;;;;;4919311;29;20028;-80
2021/08/05 06:35:55;;;;;;;3.00;2.28;;;21.10;61.20;;;;;;4919778;29;20028;-80
2021/08/05 06:38:21;;;;;;;3.70;2.80;;;21.10;61.20;;;;;;4888317;29;20134;-81
2021/08/05 06:40:47;;;;;;;3.85;2.83;;;21.10;61.20;;;;;;4923507;29;20044;-79
2021/08/05 06:43:12;;;;;;;3.60;2.88;;;21.10;61.20;;;;;;4931512;29;20032;-80
2021/08/05 06:45:39;;;;;;;3.35;2.53;;;21.10;61.20;;;;;;4918454;29;20050;-80
2021/08/05 06:48:05;;;;;;;3.58;2.80;;;21.10;61.20;;;;;;4916729;29;20042;-82
2021/08/05 06:50:30;;;;;;;3.20;2.60;;;21.10;61.90;;;;;;4926437;29;20084;-80
2021/08/05 06:52:56;;;;;;;3.65;2.60;;;21.10;61.30;;;;;;4906095;29;20091;-80
2021/08/05 06:55:22;;;;;;;3.58;2.60;;;21.10;61.30;;;;;;4920429;29;20072;-79
2021/08/05 06:57:48;;;;;;;3.83;2.85;;;21.10;61.40;;;;;;4903977;29;20042;-79
2021/08/05 07:00:14;;;;;;;3.97;2.70;;;21.10;61.40;;;;;;4904130;29;20208;-80
2021/08/05 07:02:40;;;;;;;2.88;2.38;;;21.10;61.40;;;;;;4918593;29;20036;-80
2021/08/05 07:05:09;;;;;;;4.03;3.05;;;21.10;61.50;;;;;;4920715;29;20404;-79
2021/08/05 07:07:35;;;;;;;3.95;2.83;;;21.10;61.50;;;;;;4920667;29;20141;-79
2021/08/05 07:10:02;;;;;;;4.25;2.92;;;21.10;61.50;;;;;;4919176;29;20500;-79
2021/08/05 07:12:29;;;;;;;3.67;2.95;;;21.10;61.50;;;;;;4919555;29;20036;-80
2021/08/05 07:14:55;;;;;;;4.53;3.00;;;21.10;61.60;;;;;;4920116;29;20028;-79
2021/08/05 07:17:21;;;;;;;3.35;2.80;;;21.10;61.60;;;;;;4920194;29;20060;-80
2021/08/05 07:19:47;;;;;;;3.70;2.83;;;21.10;61.60;;;;;;4918563;29;20043;-80
2021/08/05 07:22:13;;;;;;;4.63;3.33;;;21.10;61.60;;;;;;4920246;29;20107;-79
2021/08/05 07:24:39;;;;;;;3.58;2.95;;;21.10;61.70;;;;;;4918343;29;20032;-80
2021/08/05 07:27:06;;;;;;;3.65;2.70;;;21.10;61.70;;;;;;4918400;29;20374;-80
2021/08/05 07:29:31;;;;;;;3.47;2.83;;;21.10;61.70;;;;;;4902746;29;20031;-80
2021/08/05 07:32:01;;;;;;;3.63;3.00;;;21.20;61.70;;;;;;4918821;29;20032;-79
2021/08/05 07:34:27;;;;;;;3.75;3.15;;;21.10;61.70;;;;;;4903165;29;20028;-80
2021/08/05 07:36:52;;;;;;;3.20;2.75;;;21.20;61.80;;;;;;4918680;29;20032;-80
2021/08/05 07:39:18;;;;;;;3.95;3.13;;;21.20;61.70;;;;;;4902342;29;20138;-79
2021/08/05 07:41:44;;;;;;;3.90;2.95;;;21.20;61.80;;;;;;4918360;29;20044;-79
2021/08/05 07:44:10;;;;;;;3.60;2.60;;;21.20;61.80;;;;;;4917694;29;20028;-80
2021/08/05 07:46:36;;;;;;;2.75;2.47;;;21.20;61.80;;;;;;4918458;29;20032;-79
2021/08/05 07:49:02;;;;;;;3.83;3.10;;;21.20;61.80;;;;;;4918129;29;20047;-80
2021/08/05 07:51:28;;;;;;;4.00;2.95;;;21.20;61.80;;;;;;4918978;29;20030;-80
2021/08/05 07:53:54;;;;;;;4.60;3.33;;;21.30;61.90;;;;;;4902598;29;20028;-79
2021/08/05 07:56:21;;;;;;;4.78;3.50;;;21.30;61.90;;;;;;4918940;29;20032;-81
2021/08/05 07:58:48;;;;;;;4.95;3.70;;;21.30;61.90;;;;;;4902522;29;20046;-79
2021/08/05 08:01:14;;;;;;;4.45;3.53;;;21.30;61.90;;;;;;4917448;29;20071;-80
2021/08/05 08:03:40;;;;;;;4.65;3.17;;;21.30;62.00;;;;;;4918254;29;20361;-80
2021/08/05 08:06:05;;;;;;;4.35;3.45;;;21.30;62.00;;;;;;4918892;29;20057;-80
2021/08/05 08:08:32;;;;;;;5.20;3.85;;;21.30;61.90;;;;;;4919267;29;20024;-80
2021/08/05 08:10:59;;;;;;;4.55;3.70;;;21.30;62.00;;;;;;4918470;29;20036;-80
2021/08/05 08:13:25;;;;;;;3.88;3.28;;;21.30;62.00;;;;;;4916744;29;20032;-79
2021/08/05 08:15:51;;;;;;;4.80;3.50;;;21.40;62.10;;;;;;4918975;29;20048;-80
2021/08/05 08:18:17;;;;;;;4.97;3.70;;;21.40;62.10;;;;;;4902345;29;20036;-81
2021/08/05 08:20:44;;;;;;;4.55;3.60;;;21.40;62.10;;;;;;4917496;29;20043;-80
2021/08/05 08:23:09;;;;;;;4.20;3.17;;;21.50;62.10;;;;;;4902290;29;20492;-80
2021/08/05 08:25:35;;;;;;;4.82;3.55;;;21.40;62.10;;;;;;4918724;29;20119;-80
2021/08/05 08:28:01;;;;;;;4.13;3.47;;;21.50;62.10;;;;;;4902425;29;20056;-80
2021/08/05 08:30:27;;;;;;;5.43;3.50;;;21.50;62.10;;;;;;4886159;29;20076;-80
2021/08/05 08:32:53;;;;;;;5.07;3.70;;;21.50;62.10;;;;;;4919022;29;20384;-80
2021/08/05 08:35:18;;;;;;;4.82;3.70;;;21.50;62.10;;;;;;4901731;29;20032;-80
2021/08/05 08:37:45;;;;;;;4.78;3.63;;;21.60;62.10;;;;;;4917377;29;20028;-80
2021/08/05 08:40:12;;;;;;;4.45;3.35;;;21.60;62.10;;;;;;4901336;29;20043;-80
2021/08/05 08:42:39;;;;;;;4.43;3.47;;;21.60;62.10;;;;;;4917065;29;20025;-80
2021/08/05 08:45:06;;;;;;;5.32;4.10;;;21.60;62.10;;;;;;4901549;29;20449;-80
2021/08/05 08:47:33;;;;;;;5.35;4.20;;;21.70;62.10;;;;;;4917800;29;20028;-80
2021/08/05 08:50:00;;;;;;;5.32;4.18;;;21.70;62.20;;;;;;4917010;29;20539;-79
2021/08/05 08:52:29;;;;;;;4.97;4.13;;;21.70;62.90;;;;;;4901218;29;20487;-79
2021/08/05 08:54:56;;;;;;;4.90;3.88;;;21.80;62.30;;;;;;4917948;29;20060;-79
2021/08/05 08:57:27;;;;;;;5.00;3.97;;;21.80;62.30;;;;;;4916893;29;20095;-79
2021/08/05 08:59:54;;;;;;;5.72;4.45;;;21.90;62.30;;;;;;4918247;29;20036;-79
2021/08/05 09:02:21;;;;;;;5.35;4.25;;;21.90;62.20;;;;;;4916747;29;20068;-80
2021/08/05 09:04:47;;;;;;;6.53;4.20;;;22.00;62.80;;;;;;4916765;29;20047;-79
2021/08/05 09:07:13;;;;;;;5.25;4.28;;;22.10;62.10;;;;;;4901085;29;20455;-79
2021/08/05 09:09:39;;;;;;;5.47;4.35;;;22.10;62.10;;;;;;4900642;29;20485;-80
2021/08/05 09:12:05;;;;;;;5.50;4.35;;;22.20;62.00;;;;;;4916920;29;20062;-80
2021/08/05 09:14:43;;;;;;;6.13;4.78;;;22.30;62.00;;;;;;4916580;29;20036;-79
2021/08/05 09:17:24;;;;;;;5.30;4.43;;;22.30;62.10;;;;;;4917367;29;20052;-80
2021/08/05 09:19:52;;;;;;;5.93;4.65;;;22.40;62.00;;;;;;4916478;29;20055;-80
2021/08/05 09:22:39;;;;;;;5.55;4.70;;;22.50;61.90;;;;;;4900865;29;20400;-79
2021/08/05 09:25:23;;;;;;;5.10;4.20;;;22.60;62.00;;;;;;4900922;29;20028;-79
2021/08/05 09:27:50;;;;;;;5.50;4.10;;;22.60;61.80;;;;;;4901003;29;20472;-79
2021/08/05 09:30:36;;;;;;;4.45;3.72;;;22.70;61.60;;;;;;4917459;29;20032;-79
2021/08/05 09:33:03;;;;;;;5.07;4.00;;;22.80;61.70;;;;;;4916653;29;20036;-79
2021/08/05 09:35:29;;;;;;;5.25;4.10;;;22.90;61.50;;;;;;4917936;29;20024;-80
2021/08/05 09:38:19;;;;;;;5.03;4.05;;;23.00;61.50;;;;;;4916328;29;20043;-79
2021/08/05 09:40:44;;;;;;;5.60;4.25;;;23.10;61.60;;;;;;4917818;29;20032;-80
2021/08/05 09:43:10;;;;;;;5.82;4.20;;;23.20;61.30;;;;;;4900826;29;20480;-79
2021/08/05 09:45:38;;;;;;;5.47;4.25;;;23.30;61.30;;;;;;4917297;29;20064;-79
2021/08/05 09:48:05;;;;;;;4.97;4.20;;;23.30;61.20;;;;;;4917290;29;20046;-80
2021/08/05 09:50:31;;;;;;;5.35;4.10;;;23.50;61.20;;;;;;4916290;29;20040;-79
2021/08/05 09:53:11;;;;;;;4.72;3.80;;;23.50;61.00;;;;;;4900790;29;20535;-79
2021/08/05 09:55:37;;;;;;;5.03;3.97;;;23.60;61.10;;;;;;4917427;29;20457;-79
2021/08/05 09:58:06;;;;;;;5.38;4.30;;;23.80;61.00;;;;;;4900527;29;20433;-79
2021/08/05 10:00:44;;;;;;;4.07;3.47;;;23.80;61.00;;;;;;4916385;29;20422;-80
2021/08/05 10:03:10;;;;;;;4.10;3.38;;;23.90;61.00;;;;;;4916518;29;20072;-80
2021/08/05 10:05:36;;;;;;;4.75;3.60;;;24.00;60.80;;;;;;4916171;29;20056;-79
2021/08/05 10:08:02;;;;;;;4.78;3.75;;;24.10;60.70;;;;;;4931794;29;20043;-80
2021/08/05 10:10:51;;;;;;;5.05;3.90;;;24.20;60.70;;;;;;4916242;29;20115;-79
2021/08/05 10:13:31;;;;;;;4.70;3.70;;;24.20;60.70;;;;;;4925546;29;20170;-79
2021/08/05 10:15:57;;;;;;;4.53;3.50;;;24.40;60.60;;;;;;4916153;29;20543;-79
2021/08/05 10:18:31;;;;;;;4.95;3.85;;;24.40;60.20;;;;;;4900331;29;20048;-79
2021/08/05 10:20:58;;;;;;;4.82;3.92;;;24.60;60.40;;;;;;4916110;29;20040;-79
2021/08/05 10:23:26;;;;;;;4.97;4.18;;;24.60;60.10;;;;;;4900137;29;20028;-79
2021/08/05 10:25:59;;;;;;;4.90;3.70;;;24.70;60.00;;;;;;4915953;29;20469;-80
2021/08/05 10:28:26;;;;;;;4.35;3.78;;;24.80;60.00;;;;;;4916733;29;20055;-79
2021/08/05 10:30:53;;;;;;;5.05;4.03;;;24.90;59.90;;;;;;4899997;29;20131;-79
2021/08/05 10:33:20;;;;;;;4.35;3.78;;;25.00;59.80;;;;;;4917335;29;20032;-80
2021/08/05 10:35:48;;;;;;;4.65;3.97;;;25.10;59.80;;;;;;4916162;29;20032;-79
2021/08/05 10:38:19;;;;;;;4.68;3.80;;;25.20;59.60;;;;;;4920431;29;20519;-79
2021/08/05 10:40:48;;;;;;;4.82;3.92;;;25.30;59.50;;;;;;4920571;29;20341;-79
2021/08/05 10:43:14;;;;;;;4.75;4.10;;;25.30;59.40;;;;;;4931144;29;20113;-79
2021/08/05 10:45:40;;;;;;;4.47;3.67;;;25.40;59.40;;;;;;4927239;29;20032;-79
2021/08/05 10:48:08;;;;;;;5.18;4.32;;;25.50;59.20;;;;;;4925916;29;20475;-80
2021/08/05 10:50:40;;;;;;;6.00;3.88;;;25.60;59.20;;;;;;4907516;29;20437;-80
2021/08/05 10:53:07;;;;;;;4.90;4.10;;;25.70;59.10;;;;;;4922442;29;20028;-81
2021/08/05 10:55:35;;;;;;;5.22;4.13;;;25.80;58.90;;;;;;4904178;29;20055;-80
2021/08/05 10:58:28;;;;;;;4.70;4.20;;;25.90;58.80;;;;;;4920190;29;20173;-80
2021/08/05 11:01:02;;;;;;;4.68;4.05;;;25.90;58.80;;;;;;4920475;29;20040;-80
2021/08/05 11:03:41;;;;;;;4.90;4.28;;;26.00;58.60;;;;;;4919185;29;20028;-80
2021/08/05 11:06:27;;;;;;;4.93;3.72;;;26.10;58.50;;;;;;4919535;29;20040;-80
2021/08/05 11:08:53;;;;;;;5.25;3.75;;;26.20;58.50;;;;;;4918437;29;20445;-80
2021/08/05 11:11:22;;;;;;;4.40;3.90;;;26.20;58.30;;;;;;4902989;29;20028;-80
2021/08/05 11:14:00;;;;;;;5.35;4.05;;;26.30;58.30;;;;;;4918765;29;20036;-80
2021/08/05 11:17:02;;;;;;;5.18;4.68;;;26.40;58.30;;;;;;4918200;29;20090;-80
2021/08/05 11:19:33;;;;;;;4.15;3.58;;;26.40;58.10;;;;;;4919493;29;20044;-80
2021/08/05 11:22:34;;;;;;;5.28;4.03;;;26.50;58.00;;;;;;4919807;29;20068;-79
2021/08/05 11:25:00;;;;;;;5.35;4.28;;;26.50;58.10;;;;;;4919671;29;20083;-80
2021/08/05 11:27:26;;;;;;;5.20;4.00;;;26.60;57.90;;;;;;4903167;29;20044;-80
2021/08/05 11:29:52;;;;;;;4.75;3.92;;;26.70;58.00;;;;;;4903060;29;20048;-80
2021/08/05 11:32:24;;;;;;;4.65;3.78;;;26.70;58.10;;;;;;4902774;29;20115;-80
2021/08/05 11:34:59;;;;;;;4.60;4.10;;;26.70;58.30;;;;;;4919081;29;20039;-84
2021/08/05 11:37:26;;;;;;;4.95;4.18;;;26.80;58.40;;;;;;4902707;29;20028;-80
2021/08/05 11:39:53;;;;;;;4.82;4.05;;;26.80;58.40;;;;;;4918089;29;20536;-80
2021/08/05 11:42:20;;;;;;;5.07;4.10;;;26.90;58.40;;;;;;4902936;29;20070;-79
2021/08/05 11:45:07;;;;;;;5.40;4.47;;;26.90;58.30;;;;;;4902466;29;20032;-80
2021/08/05 11:47:36;;;;;;;5.30;4.50;;;27.00;58.50;;;;;;4901679;29;20426;-79
2021/08/05 11:50:03;;;;;;;5.22;4.72;;;27.00;58.40;;;;;;4917995;29;20123;-79
2021/08/05 11:52:29;;;;;;;5.55;4.78;;;27.00;58.50;;;;;;4902264;29;20139;-79
2021/08/05 11:55:12;;;;;;;5.57;4.93;;;27.10;58.70;;;;;;4919468;29;20512;-80
2021/08/05 11:57:53;;;;;;;5.32;4.40;;;27.10;58.80;;;;;;4919481;29;20024;-79
2021/08/05 12:00:24;;;;;;;4.95;4.00;;;27.10;58.90;;;;;;4919126;29;20036;-79
2021/08/05 12:02:52;;;;;;;5.30;4.75;;;27.10;58.90;;;;;;4919154;29;20028;-79
2021/08/05 12:05:20;;;;;;;5.82;4.60;;;27.20;59.00;;;;;;4917749;29;20028;-80
2021/08/05 12:07:51;;;;;;;4.72;4.18;;;27.20;59.10;;;;;;4902036;29;20036;-80
2021/08/05 12:10:34;;;;;;;5.38;4.85;;;27.20;59.20;;;;;;4902422;29;20042;-80
2021/08/05 12:13:12;;;;;;;5.38;4.50;;;27.30;59.40;;;;;;4933626;29;20028;-79
2021/08/05 12:15:41;;;;;;;4.93;4.43;;;27.20;59.20;;;;;;4918868;29;20042;-79
2021/08/05 12:18:08;;;;;;;4.90;4.35;;;27.30;59.30;;;;;;4918716;29;20084;-80
2021/08/05 12:20:39;;;;;;;4.95;4.43;;;27.30;59.20;;;;;;4901952;29;20044;-80
2021/08/05 12:23:11;;;;;;;5.50;5.00;;;27.40;59.30;;;;;;4918466;29;20032;-80
2021/08/05 12:26:11;;;;;;;5.18;4.45;;;27.40;59.30;;;;;;4918433;29;20469;-80
2021/08/05 12:28:38;;;;;;;5.47;4.80;;;27.40;59.20;;;;;;4918490;29;20040;-80
2021/08/05 12:31:07;;;;;;;5.25;4.63;;;27.40;59.70;;;;;;4901608;29;20033;-80
2021/08/05 12:33:36;;;;;;;5.65;4.95;;;27.40;59.00;;;;;;4917270;29;20031;-80
2021/08/05 12:36:26;;;;;;;6.45;5.85;;;27.40;58.90;;;;;;4901603;29;20032;-80
2021/08/05 12:38:57;;;;;;;5.35;4.70;;;27.50;58.90;;;;;;4917892;29;20039;-81
2021/08/05 12:41:49;;;;;;;5.53;4.88;;;27.50;58.80;;;;;;4917495;29;20081;-80
2021/08/05 12:44:24;;;;;;;5.28;4.78;;;27.50;58.80;;;;;;4918287;29;20088;-81
2021/08/05 12:46:50;;;;;;;;;;;27.50;58.60;;;;;;4933272;29;20461;-81
2021/08/05 12:49:18;;;;;;;5.25;4.75;;;27.50;58.70;;;;;;4916743;29;19907;-81
2021/08/05 12:51:45;;;;;;;5.82;5.25;;;27.50;58.40;;;;;;4916865;29;20437;-82
2021/08/05 12:54:17;;;;;;;6.43;5.80;;;27.50;58.40;;;;;;4917832;29;20094;-80
2021/08/05 12:56:46;;;;;;;5.65;5.05;;;27.40;58.30;;;;;;4916857;29;20052;-80